sensor_id;sensor_type;location;lat;lon;timestamp;pressure;altitude;pressure_sealevel;temperature
24740;BMP280;45234;48.148;17.128;2022-11-04T00:02:06;99442.47;;;12.02
24740;BMP280;45234;48.148;17.128;2022-11-04T00:04:33;99413.31;;;12.00
24740;BMP280;45234;48.148;17.128;2022-11-04T00:06:59;99399.13;;;12.03
24740;BMP280;45234;48.148;17.128;2022-11-04T00:09:28;99409.56;;;11.96
24740;BMP280;45234;48.148;17.128;2022-11-04T00:11:56;99412.16;;;11.96
24740;BMP280;45234;48.148;17.128;2022-11-04T00:14:41;99411.38;;;11.95
24740;BMP280;45234;48.148;17.128;2022-11-04T00:17:10;99399.84;;;11.91
24740;BMP280;45234;48.148;17.128;2022-11-04T00:19:52;99396.28;;;11.86
24740;BMP280;45234;48.148;17.128;2022-11-04T00:22:38;99423.44;;;11.90
24740;BMP280;45234;48.148;17.128;2022-11-04T00:25:24;99420.03;;;11.89
24740;BMP280;45234;48.148;17.128;2022-11-04T00:30:57;99408.25;;;11.87
24740;BMP280;45234;48.148;17.128;2022-11-04T00:33:24;99401.91;;;11.83
24740;BMP280;45234;48.148;17.128;2022-11-04T00:35:53;99405.59;;;11.75
24740;BMP280;45234;48.148;17.128;2022-11-04T00:38:20;99404.41;;;11.71
24740;BMP280;45234;48.148;17.128;2022-11-04T00:40:48;99395.28;;;11.69
24740;BMP280;45234;48.148;17.128;2022-11-04T00:43:15;99403.63;;;11.71
24740;BMP280;45234;48.148;17.128;2022-11-04T00:45:44;99396.88;;;11.70
24740;BMP280;45234;48.148;17.128;2022-11-04T00:48:11;99388.28;;;11.69
24740;BMP280;45234;48.148;17.128;2022-11-04T00:50:38;99393.66;;;11.68
24740;BMP280;45234;48.148;17.128;2022-11-04T00:53:05;99382.56;;;11.60
24740;BMP280;45234;48.148;17.128;2022-11-04T00:55:32;99388.78;;;11.59
24740;BMP280;45234;48.148;17.128;2022-11-04T00:57:59;99381.38;;;11.56
24740;BMP280;45234;48.148;17.128;2022-11-04T01:00:26;99387.44;;;11.50
24740;BMP280;45234;48.148;17.128;2022-11-04T01:02:52;99377.91;;;11.44
24740;BMP280;45234;48.148;17.128;2022-11-04T01:05:19;99371.13;;;11.43
24740;BMP280;45234;48.148;17.128;2022-11-04T01:07:46;99370.34;;;11.43
24740;BMP280;45234;48.148;17.128;2022-11-04T01:10:13;99367.16;;;11.41
24740;BMP280;45234;48.148;17.128;2022-11-04T01:12:39;99356.44;;;11.37
24740;BMP280;45234;48.148;17.128;2022-11-04T01:15:06;99367.00;;;11.36
24740;BMP280;45234;48.148;17.128;2022-11-04T01:17:33;99360.00;;;11.36
24740;BMP280;45234;48.148;17.128;2022-11-04T01:20:00;99376.00;;;11.33
24740;BMP280;45234;48.148;17.128;2022-11-04T01:22:28;99378.78;;;11.38
24740;BMP280;45234;48.148;17.128;2022-11-04T01:24:55;99354.97;;;11.41
24740;BMP280;45234;48.148;17.128;2022-11-04T01:27:22;99344.25;;;11.38
24740;BMP280;45234;48.148;17.128;2022-11-04T01:29:49;99345.06;;;11.38
24740;BMP280;45234;48.148;17.128;2022-11-04T01:32:16;99335.22;;;11.40
24740;BMP280;45234;48.148;17.128;2022-11-04T01:34:44;99337.97;;;11.45
24740;BMP280;45234;48.148;17.128;2022-11-04T01:37:11;99339.16;;;11.49
24740;BMP280;45234;48.148;17.128;2022-11-04T01:39:38;99334.38;;;11.46
24740;BMP280;45234;48.148;17.128;2022-11-04T01:42:04;99331.19;;;11.44
24740;BMP280;45234;48.148;17.128;2022-11-04T01:44:48;99327.28;;;11.35
24740;BMP280;45234;48.148;17.128;2022-11-04T01:47:22;99317.63;;;10.99
24740;BMP280;45234;48.148;17.128;2022-11-04T01:50:06;99314.66;;;11.20
24740;BMP280;45234;48.148;17.128;2022-11-04T01:55:10;99332.94;;;11.32
24740;BMP280;45234;48.148;17.128;2022-11-04T01:57:41;99323.69;;;11.36
24740;BMP280;45234;48.148;17.128;2022-11-04T02:00:10;99333.09;;;11.37
24740;BMP280;45234;48.148;17.128;2022-11-04T02:02:53;99324.09;;;11.33
24740;BMP280;45234;48.148;17.128;2022-11-04T02:05:22;99317.69;;;11.36
24740;BMP280;45234;48.148;17.128;2022-11-04T02:07:53;99312.16;;;11.32
24740;BMP280;45234;48.148;17.128;2022-11-04T02:10:26;99313.53;;;11.35
24740;BMP280;45234;48.148;17.128;2022-11-04T02:12:55;99301.97;;;11.37
24740;BMP280;45234;48.148;17.128;2022-11-04T02:27:31;99288.31;;;11.23
24740;BMP280;45234;48.148;17.128;2022-11-04T02:30:17;99288.09;;;11.25
24740;BMP280;45234;48.148;17.128;2022-11-04T02:41:12;99276.19;;;11.17
24740;BMP280;45234;48.148;17.128;2022-11-04T02:49:14;99267.97;;;11.20
24740;BMP280;45234;48.148;17.128;2022-11-04T02:51:57;99263.78;;;11.19
24740;BMP280;45234;48.148;17.128;2022-11-04T02:54:27;99251.44;;;10.97
24740;BMP280;45234;48.148;17.128;2022-11-04T02:56:58;99247.88;;;11.16
24740;BMP280;45234;48.148;17.128;2022-11-04T02:59:38;99243.63;;;11.21
24740;BMP280;45234;48.148;17.128;2022-11-04T03:02:09;99245.56;;;11.26
24740;BMP280;45234;48.148;17.128;2022-11-04T03:04:40;99237.22;;;11.24
24740;BMP280;45234;48.148;17.128;2022-11-04T03:07:11;99246.00;;;11.23
24740;BMP280;45234;48.148;17.128;2022-11-04T03:09:45;99240.41;;;11.26
24740;BMP280;45234;48.148;17.128;2022-11-04T03:12:15;99233.19;;;11.28
24740;BMP280;45234;48.148;17.128;2022-11-04T03:14:53;99238.38;;;11.28
24740;BMP280;45234;48.148;17.128;2022-11-04T03:17:31;99238.44;;;11.21
24740;BMP280;45234;48.148;17.128;2022-11-04T03:20:06;99243.84;;;11.20
24740;BMP280;45234;48.148;17.128;2022-11-04T03:22:35;99236.50;;;11.17
24740;BMP280;45234;48.148;17.128;2022-11-04T03:25:04;99242.09;;;11.14
24740;BMP280;45234;48.148;17.128;2022-11-04T03:30:03;99235.63;;;11.23
24740;BMP280;45234;48.148;17.128;2022-11-04T03:32:54;99239.66;;;11.19
24740;BMP280;45234;48.148;17.128;2022-11-04T03:35:24;99243.13;;;11.31
24740;BMP280;45234;48.148;17.128;2022-11-04T03:37:52;99239.06;;;11.35
24740;BMP280;45234;48.148;17.128;2022-11-04T03:40:20;99236.09;;;11.38
24740;BMP280;45234;48.148;17.128;2022-11-04T03:42:54;99239.88;;;11.36
24740;BMP280;45234;48.148;17.128;2022-11-04T03:45:23;99238.97;;;11.30
24740;BMP280;45234;48.148;17.128;2022-11-04T03:47:50;99239.53;;;11.32
24740;BMP280;45234;48.148;17.128;2022-11-04T03:50:27;99242.41;;;11.24
24740;BMP280;45234;48.148;17.128;2022-11-04T03:52:54;99234.19;;;11.27
24740;BMP280;45234;48.148;17.128;2022-11-04T03:55:27;99231.38;;;11.28
24740;BMP280;45234;48.148;17.128;2022-11-04T03:58:03;99228.00;;;11.28
24740;BMP280;45234;48.148;17.128;2022-11-04T04:00:42;99222.44;;;11.24
24740;BMP280;45234;48.148;17.128;2022-11-04T04:03:24;99220.34;;;11.15
24740;BMP280;45234;48.148;17.128;2022-11-04T04:06:17;99221.72;;;11.17
24740;BMP280;45234;48.148;17.128;2022-11-04T04:09:18;99223.44;;;11.05
24740;BMP280;45234;48.148;17.128;2022-11-04T04:15:02;99217.56;;;11.16
24740;BMP280;45234;48.148;17.128;2022-11-04T04:17:41;99213.00;;;11.12
24740;BMP280;45234;48.148;17.128;2022-11-04T04:20:14;99211.41;;;11.11
24740;BMP280;45234;48.148;17.128;2022-11-04T04:23:00;99204.63;;;11.10
24740;BMP280;45234;48.148;17.128;2022-11-04T04:25:29;99199.91;;;11.07
24740;BMP280;45234;48.148;17.128;2022-11-04T04:28:18;99205.41;;;11.10
24740;BMP280;45234;48.148;17.128;2022-11-04T04:30:46;99205.78;;;11.14
24740;BMP280;45234;48.148;17.128;2022-11-04T04:33:14;99205.78;;;11.14
24740;BMP280;45234;48.148;17.128;2022-11-04T04:35:54;99208.69;;;11.06
24740;BMP280;45234;48.148;17.128;2022-11-04T04:38:24;99206.22;;;11.11
24740;BMP280;45234;48.148;17.128;2022-11-04T04:41:15;99203.50;;;11.06
24740;BMP280;45234;48.148;17.128;2022-11-04T04:44:03;99207.09;;;11.05
24740;BMP280;45234;48.148;17.128;2022-11-04T04:46:50;99214.66;;;11.06
24740;BMP280;45234;48.148;17.128;2022-11-04T04:49:17;99204.50;;;11.05
24740;BMP280;45234;48.148;17.128;2022-11-04T04:51:46;99203.91;;;11.03
24740;BMP280;45234;48.148;17.128;2022-11-04T04:54:13;99202.03;;;10.91
24740;BMP280;45234;48.148;17.128;2022-11-04T04:56:40;99196.47;;;10.88
24740;BMP280;45234;48.148;17.128;2022-11-04T04:59:07;99201.88;;;10.86
24740;BMP280;45234;48.148;17.128;2022-11-04T05:01:34;99207.03;;;10.86
24740;BMP280;45234;48.148;17.128;2022-11-04T05:04:01;99212.06;;;10.81
24740;BMP280;45234;48.148;17.128;2022-11-04T05:06:27;99203.72;;;10.79
24740;BMP280;45234;48.148;17.128;2022-11-04T05:08:55;99196.94;;;10.78
24740;BMP280;45234;48.148;17.128;2022-11-04T05:11:22;99206.75;;;10.76
24740;BMP280;45234;48.148;17.128;2022-11-04T05:13:51;99207.56;;;10.77
24740;BMP280;45234;48.148;17.128;2022-11-04T05:16:18;99196.94;;;10.78
24740;BMP280;45234;48.148;17.128;2022-11-04T05:18:45;99205.75;;;10.77
24740;BMP280;45234;48.148;17.128;2022-11-04T05:21:14;99206.19;;;10.74
24740;BMP280;45234;48.148;17.128;2022-11-04T05:23:41;99205.31;;;10.80
24740;BMP280;45234;48.148;17.128;2022-11-04T05:26:08;99197.41;;;10.75
24740;BMP280;45234;48.148;17.128;2022-11-04T05:28:36;99203.16;;;10.77
24740;BMP280;45234;48.148;17.128;2022-11-04T05:31:05;99205.88;;;10.82
24740;BMP280;45234;48.148;17.128;2022-11-04T05:33:32;99215.56;;;10.93
24740;BMP280;45234;48.148;17.128;2022-11-04T05:36:12;99212.75;;;10.95
24740;BMP280;45234;48.148;17.128;2022-11-04T05:38:40;99200.38;;;10.97
24740;BMP280;45234;48.148;17.128;2022-11-04T05:41:08;99196.41;;;10.94
24740;BMP280;45234;48.148;17.128;2022-11-04T05:43:36;99196.41;;;10.94
24740;BMP280;45234;48.148;17.128;2022-11-04T05:46:03;99195.69;;;10.87
24740;BMP280;45234;48.148;17.128;2022-11-04T05:48:29;99197.47;;;10.87
24740;BMP280;45234;48.148;17.128;2022-11-04T05:50:59;99193.44;;;10.91
24740;BMP280;45234;48.148;17.128;2022-11-04T05:53:26;99196.03;;;10.91
24740;BMP280;45234;48.148;17.128;2022-11-04T05:55:52;99205.19;;;10.93
24740;BMP280;45234;48.148;17.128;2022-11-04T05:58:19;99217.72;;;10.97
24740;BMP280;45234;48.148;17.128;2022-11-04T06:00:46;99227.31;;;10.96
24740;BMP280;45234;48.148;17.128;2022-11-04T06:03:12;99230.47;;;10.98
24740;BMP280;45234;48.148;17.128;2022-11-04T06:05:44;99251.00;;;11.00
24740;BMP280;45234;48.148;17.128;2022-11-04T06:08:12;99258.94;;;11.05
24740;BMP280;45234;48.148;17.128;2022-11-04T06:10:39;99251.31;;;11.10
24740;BMP280;45234;48.148;17.128;2022-11-04T06:13:05;99253.09;;;11.16
24740;BMP280;45234;48.148;17.128;2022-11-04T06:15:32;99248.81;;;11.21
24740;BMP280;45234;48.148;17.128;2022-11-04T06:17:59;99248.31;;;11.31
24740;BMP280;45234;48.148;17.128;2022-11-04T06:20:25;99246.25;;;11.40
24740;BMP280;45234;48.148;17.128;2022-11-04T06:22:52;99253.00;;;11.41
24740;BMP280;45234;48.148;17.128;2022-11-04T06:25:19;99256.84;;;11.38
24740;BMP280;45234;48.148;17.128;2022-11-04T06:27:46;99272.69;;;11.30
24740;BMP280;45234;48.148;17.128;2022-11-04T06:30:14;99273.16;;;11.20
24740;BMP280;45234;48.148;17.128;2022-11-04T06:32:40;99264.75;;;11.25
24740;BMP280;45234;48.148;17.128;2022-11-04T06:35:07;99267.91;;;11.27
24740;BMP280;45234;48.148;17.128;2022-11-04T06:37:34;99281.59;;;11.34
24740;BMP280;45234;48.148;17.128;2022-11-04T06:40:01;99278.94;;;11.41
24740;BMP280;45234;48.148;17.128;2022-11-04T06:42:28;99280.09;;;11.45
24740;BMP280;45234;48.148;17.128;2022-11-04T06:44:54;99282.47;;;11.46
24740;BMP280;45234;48.148;17.128;2022-11-04T06:47:22;99289.63;;;11.33
24740;BMP280;45234;48.148;17.128;2022-11-04T06:49:50;99297.03;;;11.29
24740;BMP280;45234;48.148;17.128;2022-11-04T06:52:17;99297.63;;;11.31
24740;BMP280;45234;48.148;17.128;2022-11-04T06:54:44;99290.63;;;11.32
24740;BMP280;45234;48.148;17.128;2022-11-04T06:57:11;99298.56;;;11.37
24740;BMP280;45234;48.148;17.128;2022-11-04T06:59:38;99303.94;;;11.35
24740;BMP280;45234;48.148;17.128;2022-11-04T07:02:05;99304.94;;;11.34
24740;BMP280;45234;48.148;17.128;2022-11-04T07:04:32;99309.75;;;11.37
24740;BMP280;45234;48.148;17.128;2022-11-04T07:06:59;99301.00;;;11.32
24740;BMP280;45234;48.148;17.128;2022-11-04T07:09:26;99298.16;;;11.33
24740;BMP280;45234;48.148;17.128;2022-11-04T07:11:52;99283.91;;;11.42
24740;BMP280;45234;48.148;17.128;2022-11-04T07:14:20;99288.09;;;11.43
24740;BMP280;45234;48.148;17.128;2022-11-04T07:16:50;99292.94;;;11.40
24740;BMP280;45234;48.148;17.128;2022-11-04T07:19:17;99292.16;;;11.39
24740;BMP280;45234;48.148;17.128;2022-11-04T07:21:44;99279.78;;;11.35
24740;BMP280;45234;48.148;17.128;2022-11-04T07:24:11;99284.38;;;11.39
24740;BMP280;45234;48.148;17.128;2022-11-04T07:26:38;99283.78;;;11.37
24740;BMP280;45234;48.148;17.128;2022-11-04T07:29:05;99268.22;;;11.37
24740;BMP280;45234;48.148;17.128;2022-11-04T07:31:32;99265.31;;;11.45
24740;BMP280;45234;48.148;17.128;2022-11-04T07:33:59;99269.72;;;11.45
24740;BMP280;45234;48.148;17.128;2022-11-04T07:36:25;99265.69;;;11.49
24740;BMP280;45234;48.148;17.128;2022-11-04T07:38:52;99260.06;;;11.52
24740;BMP280;45234;48.148;17.128;2022-11-04T07:41:20;99263.00;;;11.55
24740;BMP280;45234;48.148;17.128;2022-11-04T07:43:51;99254.22;;;11.56
24740;BMP280;45234;48.148;17.128;2022-11-04T07:46:19;99263.88;;;11.68
24740;BMP280;45234;48.148;17.128;2022-11-04T07:48:46;99261.91;;;11.70
24740;BMP280;45234;48.148;17.128;2022-11-04T07:51:15;99256.75;;;11.63
24740;BMP280;45234;48.148;17.128;2022-11-04T07:53:42;99245.03;;;11.60
24740;BMP280;45234;48.148;17.128;2022-11-04T07:56:11;99252.00;;;11.60
24740;BMP280;45234;48.148;17.128;2022-11-04T07:58:39;99253.22;;;11.57
24740;BMP280;45234;48.148;17.128;2022-11-04T08:01:13;99252.81;;;11.60
24740;BMP280;45234;48.148;17.128;2022-11-04T08:03:41;99249.13;;;11.68
24740;BMP280;45234;48.148;17.128;2022-11-04T08:06:10;99244.53;;;11.70
24740;BMP280;45234;48.148;17.128;2022-11-04T08:08:38;99237.75;;;11.69
24740;BMP280;45234;48.148;17.128;2022-11-04T08:11:09;99236.25;;;11.73
24740;BMP280;45234;48.148;17.128;2022-11-04T08:13:42;99233.00;;;11.78
24740;BMP280;45234;48.148;17.128;2022-11-04T08:16:14;99241.81;;;11.77
24740;BMP280;45234;48.148;17.128;2022-11-04T08:18:42;99238.13;;;11.84
24740;BMP280;45234;48.148;17.128;2022-11-04T08:21:09;99239.66;;;11.92
24740;BMP280;45234;48.148;17.128;2022-11-04T08:23:37;99226.09;;;11.90
24740;BMP280;45234;48.148;17.128;2022-11-04T08:26:08;99233.50;;;11.86
24740;BMP280;45234;48.148;17.128;2022-11-04T08:28:35;99226.50;;;11.87
24740;BMP280;45234;48.148;17.128;2022-11-04T08:31:07;99228.97;;;11.82
24740;BMP280;45234;48.148;17.128;2022-11-04T08:33:35;99226.09;;;11.90
24740;BMP280;45234;48.148;17.128;2022-11-04T08:36:07;99232.19;;;11.95
24740;BMP280;45234;48.148;17.128;2022-11-04T08:38:35;99231.09;;;12.03
24740;BMP280;45234;48.148;17.128;2022-11-04T08:41:05;99223.78;;;12.12
24740;BMP280;45234;48.148;17.128;2022-11-04T08:43:32;99226.19;;;12.13
24740;BMP280;45234;48.148;17.128;2022-11-04T08:46:00;99207.81;;;12.08
24740;BMP280;45234;48.148;17.128;2022-11-04T08:48:32;99195.06;;;12.07
24740;BMP280;45234;48.148;17.128;2022-11-04T08:50:59;99194.31;;;12.06
24740;BMP280;45234;48.148;17.128;2022-11-04T08:53:26;99192.72;;;12.05
24740;BMP280;45234;48.148;17.128;2022-11-04T08:55:54;99191.22;;;12.09
24740;BMP280;45234;48.148;17.128;2022-11-04T08:58:24;99178.72;;;12.06
24740;BMP280;45234;48.148;17.128;2022-11-04T09:00:51;99184.03;;;12.11
24740;BMP280;45234;48.148;17.128;2022-11-04T09:03:18;99175.47;;;12.11
24740;BMP280;45234;48.148;17.128;2022-11-04T09:05:48;99184.34;;;12.03
24740;BMP280;45234;48.148;17.128;2022-11-04T09:08:16;99178.00;;;11.99
24740;BMP280;45234;48.148;17.128;2022-11-04T09:10:44;99175.97;;;12.01
24740;BMP280;45234;48.148;17.128;2022-11-04T09:13:13;99174.75;;;12.04
24740;BMP280;45234;48.148;17.128;2022-11-04T09:15:41;99172.72;;;12.06
24740;BMP280;45234;48.148;17.128;2022-11-04T09:18:08;99171.63;;;12.13
24740;BMP280;45234;48.148;17.128;2022-11-04T09:20:35;99164.94;;;12.17
24740;BMP280;45234;48.148;17.128;2022-11-04T09:23:05;99179.28;;;12.20
24740;BMP280;45234;48.148;17.128;2022-11-04T09:25:33;99165.88;;;12.11
24740;BMP280;45234;48.148;17.128;2022-11-04T09:28:00;99168.31;;;12.06
24740;BMP280;45234;48.148;17.128;2022-11-04T09:30:27;99173.56;;;11.99
24740;BMP280;45234;48.148;17.128;2022-11-04T09:32:54;99167.28;;;11.95
24740;BMP280;45234;48.148;17.128;2022-11-04T09:35:20;99162.97;;;11.89
24740;BMP280;45234;48.148;17.128;2022-11-04T09:37:48;99171.88;;;11.82
24740;BMP280;45234;48.148;17.128;2022-11-04T09:40:21;99161.09;;;11.78
24740;BMP280;45234;48.148;17.128;2022-11-04T09:45:32;99156.97;;;11.89
24740;BMP280;45234;48.148;17.128;2022-11-04T09:48:05;99153.81;;;11.87
24740;BMP280;45234;48.148;17.128;2022-11-04T09:50:49;99147.50;;;11.83
24740;BMP280;45234;48.148;17.128;2022-11-04T09:56:07;99138.13;;;11.82
24740;BMP280;45234;48.148;17.128;2022-11-04T09:58:37;99131.69;;;11.84
24740;BMP280;45234;48.148;17.128;2022-11-04T10:06:29;99129.88;;;11.85
24740;BMP280;45234;48.148;17.128;2022-11-04T10:09:43;99116.06;;;11.73
24740;BMP280;45234;48.148;17.128;2022-11-04T10:12:23;99121.25;;;11.73
24740;BMP280;45234;48.148;17.128;2022-11-04T10:15:32;99110.44;;;11.76
24740;BMP280;45234;48.148;17.128;2022-11-04T10:23:32;99087.22;;;11.81
24740;BMP280;45234;48.148;17.128;2022-11-04T10:26:12;99075.91;;;11.87
24740;BMP280;45234;48.148;17.128;2022-11-04T10:28:43;99068.13;;;11.87
24740;BMP280;45234;48.148;17.128;2022-11-04T10:31:16;99072.91;;;11.90
24740;BMP280;45234;48.148;17.128;2022-11-04T10:34:05;99070.72;;;11.87
24740;BMP280;45234;48.148;17.128;2022-11-04T10:36:35;99064.84;;;11.80
24740;BMP280;45234;48.148;17.128;2022-11-04T10:39:12;99065.16;;;11.72
24740;BMP280;45234;48.148;17.128;2022-11-04T10:41:43;99072.03;;;11.78
24740;BMP280;45234;48.148;17.128;2022-11-04T10:52:41;99041.94;;;11.88
24740;BMP280;45234;48.148;17.128;2022-11-04T10:57:41;99034.06;;;11.83
24740;BMP280;45234;48.148;17.128;2022-11-04T11:00:35;99022.06;;;11.71
24740;BMP280;45234;48.148;17.128;2022-11-04T11:05:52;99012.34;;;11.66
24740;BMP280;45234;48.148;17.128;2022-11-04T11:08:31;99012.47;;;11.59
24740;BMP280;45234;48.148;17.128;2022-11-04T11:10:59;99005.00;;;11.63
24740;BMP280;45234;48.148;17.128;2022-11-04T11:13:33;98992.59;;;11.65
24740;BMP280;45234;48.148;17.128;2022-11-04T11:16:12;98980.09;;;11.62
24740;BMP280;45234;48.148;17.128;2022-11-04T11:18:42;98988.75;;;11.68
24740;BMP280;45234;48.148;17.128;2022-11-04T11:21:14;98972.06;;;11.63
24740;BMP280;45234;48.148;17.128;2022-11-04T11:23:47;98965.06;;;11.64
24740;BMP280;45234;48.148;17.128;2022-11-04T11:26:21;98973.19;;;11.68
24740;BMP280;45234;48.148;17.128;2022-11-04T11:28:55;98961.34;;;11.72
24740;BMP280;45234;48.148;17.128;2022-11-04T11:31:36;98958.28;;;11.63
24740;BMP280;45234;48.148;17.128;2022-11-04T11:34:13;98949.38;;;11.71
24740;BMP280;45234;48.148;17.128;2022-11-04T11:36:42;98945.31;;;11.75
24740;BMP280;45234;48.148;17.128;2022-11-04T11:39:13;98935.50;;;11.77
24740;BMP280;45234;48.148;17.128;2022-11-04T11:41:56;98931.22;;;11.71
24740;BMP280;45234;48.148;17.128;2022-11-04T11:44:28;98926.03;;;11.82
24740;BMP280;45234;48.148;17.128;2022-11-04T11:47:01;98931.00;;;11.84
24740;BMP280;45234;48.148;17.128;2022-11-04T11:49:31;98922.19;;;11.85
24740;BMP280;45234;48.148;17.128;2022-11-04T11:52:34;98919.81;;;11.83
24740;BMP280;45234;48.148;17.128;2022-11-04T11:59:10;98913.63;;;11.84
24740;BMP280;45234;48.148;17.128;2022-11-04T12:01:39;98905.72;;;11.91
24740;BMP280;45234;48.148;17.128;2022-11-04T12:04:09;98904.78;;;11.97
24740;BMP280;45234;48.148;17.128;2022-11-04T12:10:44;98899.16;;;11.77
24740;BMP280;45234;48.148;17.128;2022-11-04T12:24:51;98889.28;;;10.97
24740;BMP280;45234;48.148;17.128;2022-11-04T12:27:46;98882.41;;;11.03
24740;BMP280;45234;48.148;17.128;2022-11-04T12:30:20;98881.75;;;11.07
24740;BMP280;45234;48.148;17.128;2022-11-04T12:36:14;98868.53;;;10.97
24740;BMP280;45234;48.148;17.128;2022-11-04T12:41:55;98863.41;;;11.09
24740;BMP280;45234;48.148;17.128;2022-11-04T12:45:06;98867.53;;;11.10
24740;BMP280;45234;48.148;17.128;2022-11-04T12:47:38;98869.69;;;11.13
24740;BMP280;45234;48.148;17.128;2022-11-04T13:02:06;98845.25;;;11.09
24740;BMP280;45234;48.148;17.128;2022-11-04T13:07:32;98850.66;;;11.07
24740;BMP280;45234;48.148;17.128;2022-11-04T13:10:08;98850.09;;;11.05
24740;BMP280;45234;48.148;17.128;2022-11-04T13:12:41;98850.88;;;11.06
24740;BMP280;45234;48.148;17.128;2022-11-04T13:15:22;98846.03;;;11.09
24740;BMP280;45234;48.148;17.128;2022-11-04T13:17:58;98843.66;;;11.08
24740;BMP280;45234;48.148;17.128;2022-11-04T13:20:43;98842.97;;;11.01
24740;BMP280;45234;48.148;17.128;2022-11-04T13:23:39;98829.34;;;11.05
24740;BMP280;45234;48.148;17.128;2022-11-04T13:26:12;98825.50;;;11.08
24740;BMP280;45234;48.148;17.128;2022-11-04T13:28:40;98818.41;;;11.15
24740;BMP280;45234;48.148;17.128;2022-11-04T13:31:21;98807.22;;;11.14
24740;BMP280;45234;48.148;17.128;2022-11-04T13:37:19;98819.75;;;11.06
24740;BMP280;45234;48.148;17.128;2022-11-04T13:44:53;98835.72;;;11.03
24740;BMP280;45234;48.148;17.128;2022-11-04T13:47:28;98852.44;;;11.07
24740;BMP280;45234;48.148;17.128;2022-11-04T13:49:57;98861.50;;;11.16
24740;BMP280;45234;48.148;17.128;2022-11-04T13:52:29;98853.56;;;11.11
24740;BMP280;45234;48.148;17.128;2022-11-04T13:54:59;98855.47;;;11.04
24740;BMP280;45234;48.148;17.128;2022-11-04T13:58:02;98857.38;;;10.97
24740;BMP280;45234;48.148;17.128;2022-11-04T14:00:31;98859.75;;;11.10
24740;BMP280;45234;48.148;17.128;2022-11-04T14:03:00;98858.53;;;11.12
24740;BMP280;45234;48.148;17.128;2022-11-04T14:06:07;98860.53;;;10.99
24740;BMP280;45234;48.148;17.128;2022-11-04T14:08:34;98867.09;;;11.13
24740;BMP280;45234;48.148;17.128;2022-11-04T14:11:05;98869.81;;;11.18
24740;BMP280;45234;48.148;17.128;2022-11-04T14:16:02;98869.38;;;11.21
24740;BMP280;45234;48.148;17.128;2022-11-04T14:18:35;98868.66;;;11.25
24740;BMP280;45234;48.148;17.128;2022-11-04T14:23:32;98877.94;;;11.33
24740;BMP280;45234;48.148;17.128;2022-11-04T14:26:04;98873.78;;;11.32
24740;BMP280;45234;48.148;17.128;2022-11-04T14:28:32;98874.81;;;11.31
24740;BMP280;45234;48.148;17.128;2022-11-04T14:31:10;98879.88;;;11.26
24740;BMP280;45234;48.148;17.128;2022-11-04T14:33:55;98886.19;;;11.30
24740;BMP280;45234;48.148;17.128;2022-11-04T14:44:30;98882.38;;;11.33
24740;BMP280;45234;48.148;17.128;2022-11-04T14:52:45;98867.00;;;11.19
24740;BMP280;45234;48.148;17.128;2022-11-04T14:55:27;98880.19;;;11.18
24740;BMP280;45234;48.148;17.128;2022-11-04T14:57:58;98878.84;;;11.15
24740;BMP280;45234;48.148;17.128;2022-11-04T15:00:30;98875.00;;;11.18
24740;BMP280;45234;48.148;17.128;2022-11-04T15:05:30;98878.06;;;11.26
24740;BMP280;45234;48.148;17.128;2022-11-04T15:10:49;98895.56;;;11.31
24740;BMP280;45234;48.148;17.128;2022-11-04T15:13:19;98903.13;;;11.33
24740;BMP280;45234;48.148;17.128;2022-11-04T15:15:48;98910.22;;;11.37
24740;BMP280;45234;48.148;17.128;2022-11-04T15:18:22;98914.81;;;11.35
24740;BMP280;45234;48.148;17.128;2022-11-04T15:20:58;98924.19;;;11.36
24740;BMP280;45234;48.148;17.128;2022-11-04T15:23:45;98934.16;;;11.39
24740;BMP280;45234;48.148;17.128;2022-11-04T15:26:30;98946.31;;;11.50
24740;BMP280;45234;48.148;17.128;2022-11-04T15:29:06;98949.72;;;11.62
24740;BMP280;45234;48.148;17.128;2022-11-04T15:31:34;98947.34;;;11.73
24740;BMP280;45234;48.148;17.128;2022-11-04T15:34:06;98945.56;;;11.73
24740;BMP280;45234;48.148;17.128;2022-11-04T15:36:41;98952.31;;;11.74
24740;BMP280;45234;48.148;17.128;2022-11-04T15:39:28;98971.97;;;11.70
24740;BMP280;45234;48.148;17.128;2022-11-04T15:41:59;98992.97;;;11.80
24740;BMP280;45234;48.148;17.128;2022-11-04T15:44:51;98997.16;;;11.70
24740;BMP280;45234;48.148;17.128;2022-11-04T15:49:49;98994.41;;;11.23
24740;BMP280;45234;48.148;17.128;2022-11-04T15:52:20;98988.59;;;10.98
24740;BMP280;45234;48.148;17.128;2022-11-04T15:54:50;98997.16;;;10.80
24740;BMP280;45234;48.148;17.128;2022-11-04T15:57:21;99003.38;;;10.60
24740;BMP280;45234;48.148;17.128;2022-11-04T16:00:05;99008.34;;;10.44
24740;BMP280;45234;48.148;17.128;2022-11-04T16:07:47;99008.53;;;10.24
24740;BMP280;45234;48.148;17.128;2022-11-04T16:10:30;99017.38;;;10.16
24740;BMP280;45234;48.148;17.128;2022-11-04T16:15:46;99013.53;;;10.01
24740;BMP280;45234;48.148;17.128;2022-11-04T16:18:25;99010.75;;;9.95
24740;BMP280;45234;48.148;17.128;2022-11-04T16:20:56;98997.78;;;10.02
24740;BMP280;45234;48.148;17.128;2022-11-04T16:23:25;98993.41;;;10.03
24740;BMP280;45234;48.148;17.128;2022-11-04T16:26:02;99008.16;;;10.02
24740;BMP280;45234;48.148;17.128;2022-11-04T16:28:35;99007.09;;;10.03
24740;BMP280;45234;48.148;17.128;2022-11-04T16:31:06;99006.16;;;9.98
24740;BMP280;45234;48.148;17.128;2022-11-04T16:33:33;99005.22;;;9.92
24740;BMP280;45234;48.148;17.128;2022-11-04T16:36:00;98991.28;;;9.93
24740;BMP280;45234;48.148;17.128;2022-11-04T16:38:27;98990.50;;;9.86
24740;BMP280;45234;48.148;17.128;2022-11-04T16:40:53;99003.69;;;9.84
24740;BMP280;45234;48.148;17.128;2022-11-04T16:43:21;98998.16;;;9.81
24740;BMP280;45234;48.148;17.128;2022-11-04T16:45:49;98991.81;;;9.77
24740;BMP280;45234;48.148;17.128;2022-11-04T16:48:20;98998.56;;;9.78
24740;BMP280;45234;48.148;17.128;2022-11-04T16:50:47;98998.16;;;9.81
24740;BMP280;45234;48.148;17.128;2022-11-04T16:53:14;98987.38;;;9.84
24740;BMP280;45234;48.148;17.128;2022-11-04T16:55:44;98992.75;;;9.82